Time;durP1;ratioP1;P1;durP2;ratioP2;P2;SDS_P1;SDS_P2;PMS_P1;PMS_P2;Temp;Humidity;BMP_temperature;BMP_pressure;BME280_temperature;BME280_humidity;BME280_pressure;Samples;Min_cycle;Max_cycle;Signal;HPM_P1;HPM_P2
2021/03/06 00:01:25;;;;;;;7.67;4.40;;;;;;;-0.31;71.74;97379.47;5060648;28;20442;-89
2021/03/06 00:03:51;;;;;;;4.20;3.30;;;;;;;-0.39;71.88;97375.63;5061610;28;20470;-91
2021/03/06 00:06:17;;;;;;;5.70;4.37;;;;;;;-0.38;71.73;97385.06;5061518;28;20437;-90
2021/03/06 00:08:43;;;;;;;7.07;3.50;;;;;;;-0.42;72.04;97379.19;5061235;28;20514;-90
2021/03/06 00:11:10;;;;;;;7.30;4.20;;;;;;;-0.40;72.00;97373.41;5060378;28;20449;-87
2021/03/06 00:13:36;;;;;;;6.80;4.03;;;;;;;-0.48;72.18;97375.63;5060033;28;20503;-87
2021/03/06 00:16:02;;;;;;;6.83;3.60;;;;;;;-0.42;72.19;97376.53;5059942;28;20492;-88
2021/03/06 00:18:28;;;;;;;8.37;5.17;;;;;;;-0.44;72.60;97372.84;5059483;28;20521;-87
2021/03/06 00:20:55;;;;;;;6.30;3.93;;;;;;;-0.31;72.07;97378.72;5059451;28;20449;-87
2021/03/06 00:23:21;;;;;;;6.73;3.60;;;;;;;-0.40;71.63;97379.47;5059584;28;20446;-87
2021/03/06 00:25:47;;;;;;;4.70;3.97;;;;;;;-0.45;71.48;97377.41;5060564;28;20438;-90
2021/03/06 00:28:14;;;;;;;8.43;4.70;;;;;;;-0.53;71.96;97368.25;5059930;28;20430;-90
2021/03/06 00:30:40;;;;;;;6.53;3.67;;;;;;;-0.56;72.73;97379.75;5068474;28;20465;-90
2021/03/06 00:33:06;;;;;;;9.03;4.23;;;;;;;-0.48;72.12;97378.28;5059825;28;20438;-86
2021/03/06 00:35:32;;;;;;;15.80;4.07;;;;;;;-0.42;71.92;97375.78;5059300;28;20458;-86
2021/03/06 00:37:58;;;;;;;5.10;3.83;;;;;;;-0.52;72.35;97382.25;5059036;28;20445;-86
2021/03/06 00:40:25;;;;;;;11.80;4.03;;;;;;;-0.45;71.28;97374.75;5059233;28;20981;-86
2021/03/06 00:42:51;;;;;;;5.13;4.10;;;;;;;-0.50;71.47;97372.69;5059562;28;20430;-87
2021/03/06 00:45:19;;;;;;;6.07;3.63;;;;;;;-0.50;71.02;97380.63;5059037;28;20431;-88
2021/03/06 00:47:45;;;;;;;6.00;4.27;;;;;;;-0.57;71.34;97373.00;5059850;28;20434;-89
2021/03/06 00:50:13;;;;;;;8.20;4.50;;;;;;;-0.59;71.12;97376.06;5059577;28;20485;-87
2021/03/06 00:52:39;;;;;;;6.93;4.20;;;;;;;-0.61;71.63;97377.69;5059354;28;20435;-87
2021/03/06 00:55:07;;;;;;;7.10;3.93;;;;;;;-0.61;71.73;97375.03;5059054;28;20462;-87
2021/03/06 00:57:33;;;;;;;6.50;4.20;;;;;;;-0.57;70.84;97373.00;5058434;28;20427;-87
2021/03/06 00:59:59;;;;;;;4.87;4.17;;;;;;;-0.50;70.08;97375.31;5058549;28;20522;-87
2021/03/06 01:02:26;;;;;;;9.77;4.60;;;;;;;-0.52;70.34;97371.66;5059360;28;20935;-87
2021/03/06 01:04:52;;;;;;;11.70;4.70;;;;;;;-0.62;70.57;97373.56;5058358;28;20984;-87
2021/03/06 01:07:18;;;;;;;5.10;3.97;;;;;;;-0.65;71.00;97369.13;5058572;28;20451;-87
2021/03/06 01:09:44;;;;;;;8.90;4.60;;;;;;;-0.70;70.92;97375.03;5058175;28;20443;-87
2021/03/06 01:12:10;;;;;;;6.50;4.13;;;;;;;-0.74;70.90;97367.22;5058781;28;20461;-87
2021/03/06 01:14:36;;;;;;;7.30;4.70;;;;;;;-0.74;70.49;97366.47;5058311;28;20544;-87
2021/03/06 01:17:02;;;;;;;7.00;4.30;;;;;;;-0.73;70.76;97370.59;5058472;28;20815;-90
2021/03/06 01:19:29;;;;;;;4.37;3.83;;;;;;;-0.78;70.33;97363.97;5059730;28;20461;-90
2021/03/06 01:21:55;;;;;;;6.13;4.10;;;;;;;-0.73;71.10;97365.31;5060008;28;20439;-89
2021/03/06 01:24:21;;;;;;;7.30;4.17;;;;;;;-0.72;70.59;97366.78;5059503;28;20496;-90
2021/03/06 01:26:48;;;;;;;4.43;3.70;;;;;;;-0.75;71.02;97357.78;5060126;28;20521;-90
2021/03/06 01:29:14;;;;;;;8.87;4.23;;;;;;;-0.82;70.72;97366.03;5059474;28;20823;-90
2021/03/06 01:31:40;;;;;;;5.67;4.37;;;;;;;-0.81;69.92;97359.53;5059612;28;20447;-90
2021/03/06 01:34:06;;;;;;;7.77;4.47;;;;;;;-0.80;70.17;97357.63;5059684;28;20470;-90
2021/03/06 01:36:33;;;;;;;7.53;4.53;;;;;;;-0.82;70.49;97354.69;5059299;28;20488;-91
2021/03/06 01:38:59;;;;;;;7.43;4.10;;;;;;;-0.78;69.70;97353.38;5059068;28;20513;-90
2021/03/06 01:41:25;;;;;;;6.50;4.80;;;;;;;-0.80;69.98;97358.38;5059879;28;20435;-90
2021/03/06 01:43:51;;;;;;;6.70;3.97;;;;;;;-0.80;69.96;97360.28;5059053;28;20473;-89
2021/03/06 01:46:17;;;;;;;4.87;4.33;;;;;;;-0.86;69.83;97360.13;5060368;28;20438;-90
2021/03/06 01:48:43;;;;;;;6.03;4.30;;;;;;;-0.88;69.67;97367.78;5059194;28;20434;-91
2021/03/06 01:51:09;;;;;;;5.20;3.70;;;;;;;-0.89;69.41;97363.66;5059624;28;20488;-91
2021/03/06 01:53:37;;;;;;;5.67;4.77;;;;;;;-0.90;69.10;97358.78;5058761;28;20474;-90
2021/03/06 01:56:03;;;;;;;6.30;3.80;;;;;;;-0.88;68.88;97365.16;5058877;28;20522;-90
2021/03/06 01:58:29;;;;;;;6.57;4.47;;;;;;;-0.87;69.51;97357.91;5058856;28;20449;-90
2021/03/06 02:00:55;;;;;;;6.63;3.97;;;;;;;-0.92;69.33;97358.50;5058714;28;20522;-90
2021/03/06 02:03:21;;;;;;;5.27;4.13;;;;;;;-0.94;68.38;97352.91;5059508;28;20465;-90
2021/03/06 02:05:47;;;;;;;6.27;4.07;;;;;;;-0.94;68.86;97350.28;5058985;28;20794;-90
2021/03/06 02:08:13;;;;;;;6.90;3.87;;;;;;;-0.98;69.15;97352.31;5057229;28;20468;-89
2021/03/06 02:10:43;;;;;;;6.13;4.57;;;;;;;-0.97;69.13;97343.22;5057906;28;20451;-89
2021/03/06 02:13:33;;;;;;;7.03;5.23;;;;;;;-0.95;68.76;97344.22;5057855;28;20557;-89
2021/03/06 02:16:11;;;;;;;7.60;4.60;;;;;;;-0.99;68.06;97345.53;5057751;28;20490;-89
2021/03/06 02:18:42;;;;;;;8.77;5.13;;;;;;;-1.03;68.65;97340.38;5057290;28;20817;-89
2021/03/06 02:21:17;;;;;;;9.37;5.37;;;;;;;-0.95;68.40;97341.59;5064817;28;20384;-87
2021/03/06 02:24:29;;;;;;;5.40;4.03;;;;;;;-0.98;68.08;97339.81;5079243;28;20449;-90
2021/03/06 02:27:09;;;;;;;6.43;4.67;;;;;;;-1.02;68.47;97341.13;5079514;28;20449;-89
2021/03/06 02:29:41;;;;;;;4.90;4.43;;;;;;;-1.05;67.71;97334.06;5079237;28;20458;-89
2021/03/06 02:32:12;;;;;;;6.33;4.17;;;;;;;-1.03;67.53;97335.09;5059570;28;20449;-88
2021/03/06 02:34:41;;;;;;;4.60;4.07;;;;;;;-1.05;68.00;97334.78;5056952;28;20475;-88
2021/03/06 02:37:11;;;;;;;4.77;4.23;;;;;;;-1.02;68.05;97327.88;5056638;28;20493;-88
2021/03/06 02:39:43;;;;;;;5.40;4.13;;;;;;;-1.08;67.37;97325.06;5056948;28;20457;-87
2021/03/06 02:42:13;;;;;;;6.60;4.33;;;;;;;-1.07;67.26;97321.97;5057399;28;20423;-88
2021/03/06 02:44:42;;;;;;;4.40;3.67;;;;;;;-1.09;67.49;97332.28;5056761;28;20466;-87
2021/03/06 02:47:09;;;;;;;7.27;4.87;;;;;;;-1.10;67.70;97327.44;5056702;28;20952;-87
2021/03/06 02:49:35;;;;;;;5.50;3.67;;;;;;;-1.08;67.43;97325.06;5056210;28;20444;-87
2021/03/06 02:52:01;;;;;;;4.70;4.20;;;;;;;-1.10;67.02;97320.22;5056578;28;20515;-87
2021/03/06 02:54:27;;;;;;;6.17;4.97;;;;;;;-1.10;66.85;97324.78;5056785;28;20467;-87
2021/03/06 02:56:55;;;;;;;10.07;4.37;;;;;;;-1.17;67.37;97328.44;5056700;28;20818;-87
2021/03/06 02:59:39;;;;;;;7.00;4.27;;;;;;;-1.14;67.74;97330.22;5055749;28;20815;-87
2021/03/06 03:02:15;;;;;;;6.30;4.07;;;;;;;-1.12;66.76;97321.81;5067577;28;20407;-87
2021/03/06 03:04:54;;;;;;;7.60;4.17;;;;;;;-1.20;66.54;97337.28;5077441;28;20438;-90
2021/03/06 03:07:27;;;;;;;7.47;5.10;;;;;;;-1.21;66.85;97319.16;5066905;28;20430;-89
2021/03/06 03:09:59;;;;;;;6.83;4.67;;;;;;;-1.24;67.42;97318.13;5078528;28;20426;-87
2021/03/06 03:12:34;;;;;;;12.43;5.87;;;;;;;-1.27;67.18;97316.34;5078642;28;20474;-88
2021/03/06 03:15:08;;;;;;;6.00;4.77;;;;;;;-1.26;67.22;97317.09;5078132;28;20450;-88
2021/03/06 03:17:39;;;;;;;8.27;4.70;;;;;;;-1.28;67.20;97314.88;5058277;28;20899;-89
2021/03/06 03:20:14;;;;;;;7.53;5.20;;;;;;;-1.22;66.46;97315.03;5057286;28;20519;-89
2021/03/06 03:22:46;;;;;;;6.63;4.87;;;;;;;-1.17;65.96;97306.53;5057913;28;20473;-89
2021/03/06 03:25:14;;;;;;;6.30;4.70;;;;;;;-1.27;66.38;97320.91;5056863;28;20472;-89
2021/03/06 03:27:42;;;;;;;6.63;4.70;;;;;;;-1.29;66.33;97318.72;5056817;28;20456;-89
2021/03/06 03:30:12;;;;;;;6.23;4.80;;;;;;;-1.36;67.13;97311.03;5057577;28;20529;-89
2021/03/06 03:32:40;;;;;;;7.50;5.00;;;;;;;-1.39;66.83;97313.81;5058116;28;20491;-86
2021/03/06 03:35:11;;;;;;;5.73;4.13;;;;;;;-1.44;66.90;97309.81;5061220;28;20473;-86
2021/03/06 03:37:38;;;;;;;4.77;3.97;;;;;;;-1.32;66.17;97314.31;5060093;28;20454;-86
2021/03/06 03:40:05;;;;;;;7.60;5.07;;;;;;;-1.36;66.68;97315.59;5059949;28;20886;-87
2021/03/06 03:42:32;;;;;;;7.00;4.80;;;;;;;-1.45;66.30;97313.66;5060930;28;20463;-87
2021/03/06 03:44:58;;;;;;;5.27;4.40;;;;;;;-1.46;66.34;97314.81;5060721;28;20462;-86
2021/03/06 03:47:25;;;;;;;4.93;4.17;;;;;;;-1.48;66.65;97325.13;5059984;28;20454;-85
2021/03/06 03:49:52;;;;;;;7.77;5.10;;;;;;;-1.49;67.15;97326.28;5060358;28;20415;-87
2021/03/06 03:52:19;;;;;;;5.63;3.83;;;;;;;-1.46;67.18;97325.41;5060744;28;20814;-90
2021/03/06 03:54:48;;;;;;;6.17;4.77;;;;;;;-1.41;66.65;97327.47;5061797;28;20465;-90
2021/03/06 03:57:14;;;;;;;7.27;4.57;;;;;;;-1.49;67.16;97321.00;5061993;28;20576;-90
2021/03/06 03:59:40;;;;;;;7.53;4.87;;;;;;;-1.48;67.57;97324.38;5060312;28;20939;-86
2021/03/06 04:02:06;;;;;;;4.93;4.20;;;;;;;-1.43;67.28;97323.78;5060315;28;20450;-86
2021/03/06 04:04:33;;;;;;;5.03;4.43;;;;;;;-1.50;67.05;97330.09;5059814;28;20454;-86
2021/03/06 04:07:01;;;;;;;8.30;4.97;;;;;;;-1.46;67.12;97333.34;5061288;28;20433;-86
2021/03/06 04:09:28;;;;;;;7.50;5.10;;;;;;;-1.52;67.16;97337.00;5060858;28;20521;-87
2021/03/06 04:11:55;;;;;;;6.27;4.80;;;;;;;-1.55;67.09;97329.94;5060571;28;20469;-86
2021/03/06 04:14:21;;;;;;;4.50;3.80;;;;;;;-1.56;67.05;97336.38;5060906;28;20565;-87
2021/03/06 04:16:47;;;;;;;5.67;4.23;;;;;;;-1.54;67.01;97340.09;5060471;28;20470;-86
2021/03/06 04:19:13;;;;;;;5.40;4.00;;;;;;;-1.56;67.15;97342.41;5060442;28;20529;-86
2021/03/06 04:21:40;;;;;;;5.23;4.30;;;;;;;-1.60;67.73;97349.78;5060963;28;20444;-87
2021/03/06 04:24:07;;;;;;;5.40;3.87;;;;;;;-1.55;67.33;97357.13;5060117;28;20520;-87
2021/03/06 04:26:33;;;;;;;14.77;4.77;;;;;;;-1.64;67.77;97346.50;5059371;28;20438;-87
2021/03/06 04:28:59;;;;;;;5.23;4.10;;;;;;;-1.65;68.09;97345.03;5059974;28;20459;-88
2021/03/06 04:31:25;;;;;;;6.73;4.10;;;;;;;-1.68;67.67;97345.91;5060340;28;20540;-88
2021/03/06 04:33:51;;;;;;;5.53;4.40;;;;;;;-1.67;67.67;97348.13;5060219;28;20867;-89
2021/03/06 04:36:17;;;;;;;7.60;4.50;;;;;;;-1.66;67.68;97344.28;5060073;28;20481;-89
2021/03/06 04:38:43;;;;;;;7.63;4.00;;;;;;;-1.69;67.79;97347.78;5060751;28;20446;-89
2021/03/06 04:41:10;;;;;;;4.13;3.47;;;;;;;-1.68;67.91;97340.59;5060407;28;20441;-88
2021/03/06 04:43:36;;;;;;;6.03;4.37;;;;;;;-1.78;68.28;97345.09;5060787;28;20494;-88
2021/03/06 04:46:03;;;;;;;5.50;3.70;;;;;;;-1.78;68.64;97347.00;5059650;28;20439;-89
2021/03/06 04:48:29;;;;;;;4.97;3.33;;;;;;;-1.74;68.49;97350.28;5061127;28;20442;-88
2021/03/06 04:50:55;;;;;;;8.77;4.30;;;;;;;-1.77;68.45;97343.94;5059386;28;20457;-87
2021/03/06 04:53:21;;;;;;;8.47;4.63;;;;;;;-1.74;67.87;97352.91;5059174;28;20608;-87
2021/03/06 04:55:47;;;;;;;4.57;3.53;;;;;;;-1.81;68.28;97348.63;5059004;28;20494;-87
2021/03/06 04:58:14;;;;;;;10.17;4.50;;;;;;;-1.83;68.33;97352.88;5059162;28;20445;-87
2021/03/06 05:00:40;;;;;;;6.30;4.13;;;;;;;-1.67;68.46;97360.59;5059098;28;20521;-91
2021/03/06 05:03:06;;;;;;;4.60;3.67;;;;;;;-1.75;67.87;97359.38;5060331;28;20485;-90
2021/03/06 05:05:32;;;;;;;7.23;3.80;;;;;;;-1.78;68.85;97358.34;5060884;28;20474;-91
2021/03/06 05:07:58;;;;;;;9.70;4.27;;;;;;;-1.84;68.76;97356.69;5060679;28;20525;-86
2021/03/06 05:10:25;;;;;;;5.30;4.07;;;;;;;-1.82;68.17;97357.75;5059251;28;20435;-86
2021/03/06 05:12:51;;;;;;;5.00;3.63;;;;;;;-1.77;68.82;97353.78;5058927;28;20529;-87
2021/03/06 05:15:18;;;;;;;4.93;4.43;;;;;;;-1.85;68.92;97350.66;5059262;28;20506;-87
2021/03/06 05:17:44;;;;;;;5.43;3.33;;;;;;;-1.89;68.76;97346.66;5059339;28;20430;-87
2021/03/06 05:20:12;;;;;;;5.80;4.93;;;;;;;-1.92;69.70;97348.28;5059552;28;20454;-87
2021/03/06 05:22:38;;;;;;;11.90;5.40;;;;;;;-1.90;69.13;97353.88;5059603;28;20450;-87
2021/03/06 05:25:05;;;;;;;5.47;4.13;;;;;;;-1.90;69.19;97355.75;5077277;28;20456;-89
2021/03/06 05:27:32;;;;;;;5.43;4.07;;;;;;;-1.82;69.33;97352.44;5080350;28;20470;-89
2021/03/06 05:29:59;;;;;;;6.23;4.13;;;;;;;-1.87;69.50;97352.25;5080398;28;20442;-89
2021/03/06 05:32:26;;;;;;;8.40;4.63;;;;;;;-1.86;69.05;97345.81;5080366;28;20435;-89
2021/03/06 05:34:52;;;;;;;6.23;4.53;;;;;;;-1.92;69.51;97358.84;5060172;28;20458;-87
2021/03/06 05:37:18;;;;;;;9.60;4.93;;;;;;;-1.79;69.53;97354.22;5060213;28;21032;-87
2021/03/06 05:39:44;;;;;;;5.90;4.63;;;;;;;-1.89;69.74;97354.59;5059642;28;20445;-86
2021/03/06 05:42:11;;;;;;;5.83;4.20;;;;;;;-1.87;69.40;97354.91;5059514;28;20451;-87
2021/03/06 05:44:38;;;;;;;6.10;4.30;;;;;;;-1.91;70.23;97356.94;5059562;28;20459;-87
2021/03/06 05:47:05;;;;;;;4.70;4.03;;;;;;;-1.98;70.20;97349.28;5060313;28;20468;-87
2021/03/06 05:49:32;;;;;;;6.40;4.90;;;;;;;-2.00;70.62;97356.88;5061313;28;20510;-87
2021/03/06 05:52:00;;;;;;;6.37;4.43;;;;;;;-2.03;70.86;97355.84;5059496;28;20565;-87
2021/03/06 05:54:27;;;;;;;4.10;3.60;;;;;;;-2.08;70.85;97355.66;5061254;28;20450;-87
2021/03/06 05:56:54;;;;;;;8.67;4.27;;;;;;;-2.05;70.57;97350.25;5060096;28;20938;-87
2021/03/06 05:59:23;;;;;;;11.13;5.40;;;;;;;-1.98;70.45;97347.38;5060656;28;20528;-87
2021/03/06 06:01:49;;;;;;;5.43;3.97;;;;;;;-1.83;70.27;97347.59;5061581;28;20502;-88
2021/03/06 06:04:17;;;;;;;11.10;4.53;;;;;;;-1.69;70.04;97341.75;5060839;28;20942;-87
2021/03/06 06:06:44;;;;;;;7.23;4.30;;;;;;;-1.39;68.77;97346.31;5060981;28;20493;-86
2021/03/06 06:09:10;;;;;;;12.53;4.80;;;;;;;-1.07;67.49;97351.09;5062912;28;20434;-86
2021/03/06 06:11:37;;;;;;;7.10;4.13;;;;;;;-0.86;66.85;97343.50;5061946;28;20434;-86
2021/03/06 06:14:05;;;;;;;6.77;4.20;;;;;;;-0.56;65.94;97335.44;5060792;28;20542;-87
2021/03/06 06:16:32;;;;;;;6.50;4.73;;;;;;;-0.26;64.54;97354.28;5059681;28;20839;-87
2021/03/06 06:19:00;;;;;;;4.27;3.67;;;;;;;-0.20;64.25;97350.59;5060913;28;20959;-88
2021/03/06 06:21:41;;;;;;;11.63;3.73;;;;;;;-0.11;63.55;97350.59;5061032;28;20431;-87
2021/03/06 06:24:11;;;;;;;7.83;4.53;;;;;;;0.24;62.24;97358.19;5061654;28;20442;-85
2021/03/06 06:26:38;;;;;;;5.90;4.73;;;;;;;0.40;61.37;97363.16;5059501;28;20445;-86
2021/03/06 06:29:05;;;;;;;6.00;4.53;;;;;;;0.68;60.90;97361.13;5060012;28;20562;-89
2021/03/06 06:31:32;;;;;;;8.60;4.23;;;;;;;0.55;61.18;97358.69;5060332;28;20509;-89
2021/03/06 06:33:58;;;;;;;5.80;4.30;;;;;;;0.74;60.57;97364.66;5059558;28;20497;-86
2021/03/06 06:36:32;;;;;;;5.17;4.07;;;;;;;0.94;60.46;97354.94;5060464;28;20494;-89
2021/03/06 06:38:58;;;;;;;8.10;3.93;;;;;;;1.05;59.87;97365.81;5060292;28;20465;-88
2021/03/06 06:41:45;;;;;;;5.00;4.50;;;;;;;1.04;60.49;97372.31;5060487;28;20504;-88
2021/03/06 06:44:12;;;;;;;6.47;4.07;;;;;;;1.21;59.49;97366.63;5061834;28;20878;-88
2021/03/06 06:46:38;;;;;;;6.97;4.30;;;;;;;1.46;58.98;97366.91;5060335;28;20492;-88
2021/03/06 06:49:04;;;;;;;7.10;4.47;;;;;;;1.47;58.56;97375.63;5061025;28;20470;-88
2021/03/06 06:51:30;;;;;;;7.80;4.10;;;;;;;1.73;57.83;97379.25;5059748;28;20442;-89
2021/03/06 06:54:08;;;;;;;6.80;5.27;;;;;;;1.84;58.04;97368.81;5059147;28;20466;-89
2021/03/06 06:56:35;;;;;;;5.67;4.07;;;;;;;1.88;57.70;97380.00;5061078;28;20519;-90
2021/03/06 06:59:03;;;;;;;7.20;5.20;;;;;;;2.01;57.42;97372.50;5061588;28;20460;-90
2021/03/06 07:01:30;;;;;;;5.00;4.43;;;;;;;2.11;56.66;97379.22;5061333;28;20450;-90
2021/03/06 07:04:03;;;;;;;5.27;4.10;;;;;;;1.79;57.30;97382.75;5060437;28;20458;-87
2021/03/06 07:06:29;;;;;;;8.80;4.70;;;;;;;1.94;57.66;97378.19;5059695;28;20520;-86
2021/03/06 07:09:09;;;;;;;7.47;5.67;;;;;;;2.00;57.46;97376.38;5059552;28;20465;-86
2021/03/06 07:11:37;;;;;;;5.50;4.50;;;;;;;2.21;56.80;97376.47;5063356;28;20438;-86
2021/03/06 07:14:04;;;;;;;6.63;4.83;;;;;;;2.34;56.64;97383.00;5077876;28;20454;-88
2021/03/06 07:16:54;;;;;;;6.83;4.40;;;;;;;2.19;57.33;97390.25;5070816;28;20553;-89
2021/03/06 07:19:20;;;;;;;8.17;5.83;;;;;;;2.13;57.65;97395.47;5061186;28;20471;-86
2021/03/06 07:21:48;;;;;;;7.30;4.73;;;;;;;2.39;57.08;97400.25;5059398;28;20454;-88
2021/03/06 07:24:14;;;;;;;8.83;5.00;;;;;;;1.98;58.11;97392.03;5059193;28;20466;-89
2021/03/06 07:26:41;;;;;;;8.27;4.60;;;;;;;2.26;57.96;97397.13;5059590;28;20473;-87
2021/03/06 07:29:08;;;;;;;9.20;4.60;;;;;;;2.40;57.40;97393.72;5060174;28;20496;-87
2021/03/06 07:31:37;;;;;;;7.87;5.30;;;;;;;2.26;58.24;97403.19;5060123;28;20428;-89
2021/03/06 07:34:05;;;;;;;12.47;5.97;;;;;;;2.66;57.08;97405.31;5059697;28;20505;-87
2021/03/06 07:36:36;;;;;;;10.60;6.17;;;;;;;2.88;56.63;97410.94;5058917;28;20490;-87
2021/03/06 07:39:04;;;;;;;10.03;4.50;;;;;;;2.79;56.48;97421.00;5058802;28;20915;-87
2021/03/06 07:41:40;;;;;;;11.37;5.40;;;;;;;2.99;56.53;97415.72;5059472;28;20446;-90
2021/03/06 07:44:09;;;;;;;7.97;5.30;;;;;;;2.98;56.23;97422.22;5058725;28;20492;-89
2021/03/06 07:46:38;;;;;;;8.43;4.70;;;;;;;2.74;57.14;97426.97;5060054;28;20453;-90
2021/03/06 07:49:11;;;;;;;7.67;5.00;;;;;;;3.11;56.51;97430.66;5060390;28;20446;-89
2021/03/06 07:51:40;;;;;;;7.60;5.60;;;;;;;2.64;57.47;97421.00;5060387;28;20427;-91
2021/03/06 07:54:06;;;;;;;7.73;5.37;;;;;;;2.65;57.78;97427.78;5060220;28;20557;-91
2021/03/06 07:56:32;;;;;;;6.90;5.23;;;;;;;3.03;56.48;97427.66;5062940;28;20485;-90
2021/03/06 07:58:59;;;;;;;8.40;5.13;;;;;;;3.32;56.31;97431.44;5061339;28;20513;-89
2021/03/06 08:01:27;;;;;;;8.40;5.50;;;;;;;2.93;56.16;97428.97;5063894;28;20449;-89
2021/03/06 08:03:54;;;;;;;11.77;5.40;;;;;;;3.33;55.69;97427.56;5062711;28;20508;-86
2021/03/06 08:06:22;;;;;;;8.70;6.77;;;;;;;2.77;57.16;97434.78;5060088;28;20953;-87
2021/03/06 08:09:10;;;;;;;13.53;6.93;;;;;;;3.20;57.09;97436.63;5060095;28;20462;-88
2021/03/06 08:11:45;;;;;;;7.63;5.90;;;;;;;2.80;57.48;97433.84;5058913;28;20523;-90
2021/03/06 08:14:29;;;;;;;6.73;5.47;;;;;;;3.64;56.09;97431.13;5059393;28;20461;-89
2021/03/06 08:16:56;;;;;;;8.53;6.03;;;;;;;2.72;58.09;97436.13;5058253;28;20573;-86
2021/03/06 08:19:27;;;;;;;10.10;6.40;;;;;;;2.47;58.86;97435.97;5059361;28;20981;-86
2021/03/06 08:21:56;;;;;;;8.40;5.33;;;;;;;2.45;59.04;97435.69;5063275;28;20430;-87
2021/03/06 08:24:27;;;;;;;7.23;5.47;;;;;;;2.13;60.26;97440.72;5063365;28;20458;-87
2021/03/06 08:27:18;;;;;;;11.23;6.17;;;;;;;2.39;60.66;97443.59;5070595;28;20524;-88
2021/03/06 08:29:45;;;;;;;15.43;6.27;;;;;;;2.24;60.44;97450.09;5071893;28;20469;-89
2021/03/06 08:32:15;;;;;;;8.30;6.30;;;;;;;1.88;60.89;97445.81;5081456;28;20426;-88
2021/03/06 08:34:46;;;;;;;9.20;7.33;;;;;;;1.97;61.17;97443.78;5081262;28;20454;-90
2021/03/06 08:37:33;;;;;;;7.43;5.70;;;;;;;2.02;61.08;97445.84;5078217;28;20482;-88
2021/03/06 08:40:02;;;;;;;7.67;5.53;;;;;;;2.01;61.10;97439.03;5062803;28;20533;-88
2021/03/06 08:42:30;;;;;;;7.47;6.13;;;;;;;2.23;61.57;97437.97;5064098;28;20454;-89
2021/03/06 08:44:58;;;;;;;8.00;5.00;;;;;;;2.49;58.88;97439.66;5062186;28;20450;-90
2021/03/06 08:47:27;;;;;;;8.10;5.20;;;;;;;2.27;58.88;97451.84;5064765;28;20476;-90
2021/03/06 08:49:54;;;;;;;7.47;5.40;;;;;;;2.41;59.19;97453.78;5064593;28;20565;-89
2021/03/06 08:52:21;;;;;;;7.93;5.57;;;;;;;2.12;58.41;97455.22;5064993;28;20422;-90
2021/03/06 08:54:47;;;;;;;7.23;4.30;;;;;;;1.94;59.09;97444.00;5062026;28;20461;-89
2021/03/06 08:57:38;;;;;;;9.07;4.80;;;;;;;1.77;58.96;97456.97;5062635;28;20979;-90
2021/03/06 09:00:10;;;;;;;7.33;5.17;;;;;;;1.68;59.12;97456.28;5059837;28;20426;-91
2021/03/06 09:02:37;;;;;;;7.97;5.10;;;;;;;2.00;58.28;97460.78;5074451;28;20423;-91
2021/03/06 09:05:06;;;;;;;6.73;3.80;;;;;;;2.03;57.63;97455.31;5074248;28;20446;-92
2021/03/06 09:07:34;;;;;;;11.17;5.33;;;;;;;2.04;57.69;97459.41;5070845;28;20464;-90
2021/03/06 09:10:26;;;;;;;9.53;6.43;;;;;;;2.22;57.78;97458.53;5073625;28;20438;-90
2021/03/06 09:12:54;;;;;;;6.77;4.60;;;;;;;2.53;56.21;97450.88;5075483;28;20470;-91
2021/03/06 09:15:32;;;;;;;9.00;4.90;;;;;;;2.34;55.92;97459.47;5068772;28;20446;-89
2021/03/06 09:17:59;;;;;;;6.87;4.83;;;;;;;2.35;55.46;97459.00;5066117;28;20535;-89
2021/03/06 09:20:28;;;;;;;6.33;4.20;;;;;;;2.27;55.65;97452.56;5066109;28;20515;-88
2021/03/06 09:22:55;;;;;;;8.87;4.97;;;;;;;2.24;56.12;97453.50;5062640;28;20444;-92
2021/03/06 09:25:30;;;;;;;7.90;5.17;;;;;;;2.04;55.70;97464.00;5065321;28;20848;-91
2021/03/06 09:27:57;;;;;;;8.90;5.00;;;;;;;2.12;55.05;97457.88;5065361;28;20965;-90
2021/03/06 09:30:26;;;;;;;6.17;4.77;;;;;;;2.21;55.74;97451.75;5067371;28;20438;-91
2021/03/06 09:32:52;;;;;;;7.73;5.37;;;;;;;2.45;55.67;97446.34;5065131;28;20442;-91
2021/03/06 09:35:21;;;;;;;7.40;5.47;;;;;;;2.39;55.42;97445.50;5065251;28;20487;-90
2021/03/06 09:38:02;;;;;;;7.43;4.10;;;;;;;2.39;55.44;97448.19;5079885;28;20486;-88
2021/03/06 09:40:28;;;;;;;6.40;3.93;;;;;;;2.54;55.29;97443.59;5080292;28;20517;-90
2021/03/06 09:42:54;;;;;;;6.70;4.17;;;;;;;2.50;54.38;97449.13;5079374;28;20435;-90
2021/03/06 09:45:26;;;;;;;6.57;4.57;;;;;;;2.61;54.18;97443.22;5067315;28;20815;-90
2021/03/06 09:47:52;;;;;;;7.23;4.67;;;;;;;2.62;54.44;97447.38;5066429;28;20470;-91
2021/03/06 09:50:18;;;;;;;5.67;4.83;;;;;;;2.59;54.02;97442.97;5065319;28;20912;-88
2021/03/06 09:52:46;;;;;;;5.63;4.30;;;;;;;2.62;54.16;97445.44;5060885;28;20553;-90
2021/03/06 09:55:19;;;;;;;7.63;4.60;;;;;;;2.43;54.81;97448.75;5061723;28;20508;-90
2021/03/06 09:57:45;;;;;;;6.83;5.07;;;;;;;2.66;53.75;97451.31;5070328;28;20557;-91
2021/03/06 10:00:25;;;;;;;7.80;4.77;;;;;;;2.86;53.79;97450.66;5071982;28;20486;-95
2021/03/06 10:02:52;;;;;;;6.37;4.20;;;;;;;3.12;52.86;97450.81;5072606;28;20498;-89
2021/03/06 10:05:23;;;;;;;8.10;4.93;;;;;;;3.29;52.89;97453.72;5065082;28;20500;-92
2021/03/06 10:07:51;;;;;;;8.10;5.20;;;;;;;3.07;51.71;97443.47;5067935;28;20462;-89
2021/03/06 10:10:21;;;;;;;5.93;4.30;;;;;;;3.08;52.04;97447.59;5061781;28;20462;-91
2021/03/06 10:12:48;;;;;;;8.20;4.77;;;;;;;3.36;52.75;97448.72;5060311;28;20490;-89
2021/03/06 10:15:16;;;;;;;5.53;4.47;;;;;;;3.46;50.86;97442.06;5060890;28;20541;-89
2021/03/06 10:17:42;;;;;;;7.80;5.00;;;;;;;3.08;50.88;97447.59;5060916;28;20561;-89
2021/03/06 10:20:09;;;;;;;6.83;4.90;;;;;;;3.11;51.17;97444.72;5059783;28;20450;-89
2021/03/06 10:22:46;;;;;;;5.30;4.53;;;;;;;3.15;52.25;97437.28;5060929;28;20443;-90
2021/03/06 10:25:22;;;;;;;6.57;4.20;;;;;;;3.20;51.98;97435.88;5061684;28;20466;-89
2021/03/06 10:27:49;;;;;;;7.70;5.17;;;;;;;3.49;50.75;97446.47;5060505;28;20907;-88
2021/03/06 10:30:17;;;;;;;9.17;4.73;;;;;;;3.45;49.76;97447.84;5060615;28;20628;-91
2021/03/06 10:32:44;;;;;;;5.37;4.10;;;;;;;3.54;50.19;97445.09;5063300;28;20442;-90
2021/03/06 10:35:35;;;;;;;7.10;4.63;;;;;;;3.72;49.32;97450.91;5062861;28;20455;-89
2021/03/06 10:38:02;;;;;;;7.73;4.50;;;;;;;3.63;50.33;97443.00;5061038;28;20486;-90
2021/03/06 10:40:52;;;;;;;6.83;4.30;;;;;;;3.71;49.23;97444.09;5065581;28;20435;-93
2021/03/06 10:43:29;;;;;;;15.20;5.30;;;;;;;3.71;49.79;97446.75;5063373;28;20501;-93
2021/03/06 10:45:55;;;;;;;5.97;4.10;;;;;;;3.70;49.53;97439.94;5073135;28;20441;-91
2021/03/06 10:48:29;;;;;;;6.50;4.40;;;;;;;4.07;49.03;97439.41;5062455;28;20499;-88
2021/03/06 10:50:57;;;;;;;10.30;4.37;;;;;;;3.85;47.94;97437.22;5060373;28;20480;-90
2021/03/06 10:53:24;;;;;;;7.63;4.60;;;;;;;3.94;48.42;97441.69;5061041;28;20458;-89
2021/03/06 10:55:52;;;;;;;5.60;4.20;;;;;;;3.91;48.30;97435.34;5063133;28;20450;-92
2021/03/06 10:58:19;;;;;;;7.40;4.20;;;;;;;4.18;48.56;97437.56;5062669;28;20556;-90
2021/03/06 11:00:47;;;;;;;10.47;5.90;;;;;;;4.27;48.65;97440.09;5062436;28;20419;-89
2021/03/06 11:03:14;;;;;;;5.30;3.33;;;;;;;4.53;46.88;97434.00;5062423;28;20449;-89
2021/03/06 11:05:41;;;;;;;7.60;4.20;;;;;;;4.63;44.85;97420.03;5063369;28;20458;-90
2021/03/06 11:08:13;;;;;;;7.27;4.17;;;;;;;4.50;43.86;97429.63;5061860;28;20438;-91
2021/03/06 11:10:40;;;;;;;8.63;4.17;;;;;;;4.70;44.10;97426.84;5061938;28;20442;-89
2021/03/06 11:13:10;;;;;;;6.03;4.50;;;;;;;4.56;44.91;97419.69;5063900;28;20449;-89
2021/03/06 11:15:45;;;;;;;6.63;4.10;;;;;;;4.80;45.62;97418.19;5063517;28;20507;-88
2021/03/06 11:18:12;;;;;;;5.93;3.90;;;;;;;4.73;43.84;97431.28;5064145;28;20507;-89
2021/03/06 11:20:40;;;;;;;6.20;4.23;;;;;;;4.68;43.92;97426.59;5062442;28;20663;-87
2021/03/06 11:23:08;;;;;;;4.87;3.70;;;;;;;4.75;43.54;97410.16;5061677;28;20446;-89
2021/03/06 11:25:34;;;;;;;6.93;4.57;;;;;;;4.84;44.51;97413.38;5063322;28;20521;-89
2021/03/06 11:28:03;;;;;;;4.10;3.40;;;;;;;4.96;43.22;97422.19;5061915;28;20473;-89
2021/03/06 11:30:33;;;;;;;6.80;3.90;;;;;;;4.84;41.21;97421.41;5063867;28;20522;-89
2021/03/06 11:33:16;;;;;;;4.10;2.80;;;;;;;4.67;41.18;97420.53;5068692;28;20442;-91
2021/03/06 11:35:45;;;;;;;5.37;3.27;;;;;;;4.82;41.31;97404.38;5073679;28;20442;-90
2021/03/06 11:41:26;;;;;;;6.10;4.00;;;;;;;5.25;42.61;97408.53;5031308;28;20429;-89
2021/03/06 11:43:52;;;;;;;6.30;4.60;;;;;;;5.10;45.74;97407.97;5072691;28;20442;-88
2021/03/06 11:46:20;;;;;;;6.93;3.67;;;;;;;5.06;41.53;97412.78;5073669;28;20458;-90
2021/03/06 12:20:07;;;;;;;6.57;4.67;;;;;;;5.57;41.96;97360.25;5049542;28;20477;-92